createdAt,value
2022-11-06T00:00:52.805Z,12.43
2022-11-06T00:03:19.493Z,11.10
2022-11-06T00:06:04.632Z,11.18
2022-11-06T00:08:33.317Z,10.75
2022-11-06T00:10:59.938Z,10.32
2022-11-06T00:13:26.599Z,10.20
2022-11-06T00:15:53.533Z,9.80
2022-11-06T00:18:20.260Z,9.70
2022-11-06T00:20:46.999Z,10.43
2022-11-06T00:23:13.609Z,10.27
2022-11-06T00:25:41.117Z,9.90
2022-11-06T00:28:07.777Z,10.52
2022-11-06T00:30:34.389Z,10.45
2022-11-06T00:33:00.974Z,10.73
2022-11-06T00:35:27.664Z,10.90
2022-11-06T00:37:54.546Z,10.60
2022-11-06T00:40:21.179Z,11.25
2022-11-06T00:42:47.784Z,11.10
2022-11-06T00:45:14.572Z,10.73
2022-11-06T00:47:41.183Z,11.75
2022-11-06T00:50:07.966Z,10.82
2022-11-06T00:52:34.564Z,11.32
2022-11-06T00:55:01.242Z,9.57
2022-11-06T00:57:27.819Z,9.60
2022-11-06T00:59:54.394Z,9.88
2022-11-06T01:02:21.135Z,10.10
2022-11-06T01:04:47.987Z,10.20
2022-11-06T01:07:14.614Z,9.88
2022-11-06T01:09:41.195Z,10.50
2022-11-06T01:12:15.045Z,10.45
2022-11-06T01:14:42.331Z,10.07
2022-11-06T01:17:09.138Z,10.35
2022-11-06T01:19:35.792Z,10.10
2022-11-06T01:22:02.424Z,10.63
2022-11-06T01:24:29.421Z,9.25
2022-11-06T01:29:42.985Z,9.82
2022-11-06T01:32:09.899Z,10.48
2022-11-06T01:34:36.685Z,11.80
2022-11-06T01:37:03.306Z,13.05
2022-11-06T01:39:29.928Z,12.32
2022-11-06T01:41:56.481Z,11.13
2022-11-06T01:44:35.313Z,12.57
2022-11-06T01:47:02.959Z,12.85
2022-11-06T01:49:32.387Z,11.77
2022-11-06T01:52:01.034Z,11.23
2022-11-06T01:54:28.975Z,12.48
2022-11-06T01:56:56.951Z,11.85
2022-11-06T01:59:24.957Z,12.80
2022-11-06T02:01:52.307Z,12.23
2022-11-06T02:04:26.079Z,12.20
2022-11-06T02:06:53.201Z,11.85
2022-11-06T02:09:20.008Z,13.15
2022-11-06T02:11:51.191Z,12.48
2022-11-06T02:14:32.578Z,12.32
2022-11-06T02:17:03.452Z,11.10
2022-11-06T02:19:36.421Z,10.98
2022-11-06T02:22:03.087Z,12.50
2022-11-06T02:24:29.806Z,11.75
2022-11-06T02:26:56.496Z,12.48
2022-11-06T02:29:30.935Z,13.93
2022-11-06T02:31:59.966Z,13.40
2022-11-06T02:34:27.661Z,13.73
2022-11-06T02:37:00.950Z,14.13
2022-11-06T02:39:28.369Z,13.60
2022-11-06T02:41:57.140Z,13.50
2022-11-06T02:44:25.803Z,13.98
2022-11-06T02:47:01.737Z,12.32
2022-11-06T02:49:43.192Z,13.50
2022-11-06T02:52:14.993Z,13.40
2022-11-06T02:54:44.832Z,14.15
2022-11-06T02:57:15.656Z,13.25
2022-11-06T02:59:51.089Z,14.65
2022-11-06T03:02:21.328Z,14.68
2022-11-06T03:04:53.349Z,13.18
2022-11-06T03:07:29.045Z,15.90
2022-11-06T03:09:56.178Z,15.15
2022-11-06T03:12:27.327Z,13.95
2022-11-06T03:14:57.105Z,14.55
2022-11-06T03:17:31.040Z,14.68
2022-11-06T03:20:03.559Z,14.05
2022-11-06T03:22:35.682Z,14.95
2022-11-06T03:25:09.053Z,12.60
2022-11-06T03:27:37.027Z,15.15
2022-11-06T03:30:07.005Z,15.32
2022-11-06T03:32:39.626Z,15.10
2022-11-06T03:35:15.053Z,15.05
2022-11-06T03:37:48.441Z,14.90
2022-11-06T03:40:17.187Z,14.02
2022-11-06T03:42:44.984Z,13.77
2022-11-06T03:45:14.671Z,13.60
2022-11-06T03:47:43.828Z,13.80
2022-11-06T03:50:13.947Z,13.75
2022-11-06T03:52:43.335Z,14.25
2022-11-06T03:55:21.876Z,13.30
2022-11-06T03:57:57.218Z,13.50
2022-11-06T04:00:24.045Z,13.07
2022-11-06T04:02:52.356Z,12.82
2022-11-06T04:05:23.821Z,12.93
2022-11-06T04:08:11.502Z,13.35
2022-11-06T04:10:59.471Z,14.63
2022-11-06T04:13:45.767Z,13.57
2022-11-06T04:16:12.539Z,13.75
2022-11-06T04:18:39.217Z,13.30
2022-11-06T04:21:27.363Z,14.25
2022-11-06T04:24:21.000Z,14.13
2022-11-06T04:26:56.905Z,14.52
2022-11-06T04:29:29.436Z,14.20
2022-11-06T04:32:04.632Z,14.63
2022-11-06T04:34:43.334Z,14.48
2022-11-06T04:37:21.236Z,15.13
2022-11-06T04:39:50.943Z,14.73
2022-11-06T04:42:24.218Z,15.50
2022-11-06T04:44:52.979Z,14.18
2022-11-06T04:47:20.970Z,15.65
2022-11-06T04:49:48.959Z,14.98
2022-11-06T04:52:18.073Z,15.00
2022-11-06T04:54:45.674Z,14.73
2022-11-06T04:57:12.363Z,13.48
2022-11-06T04:59:39.060Z,14.43
2022-11-06T05:02:06.106Z,13.50
2022-11-06T05:04:33.679Z,14.82
2022-11-06T05:07:00.467Z,13.63
2022-11-06T05:09:27.069Z,12.75
2022-11-06T05:11:53.693Z,12.00
2022-11-06T05:14:20.320Z,12.55
2022-11-06T05:16:46.909Z,12.73
2022-11-06T05:19:13.550Z,14.05
2022-11-06T05:21:58.518Z,13.70
2022-11-06T05:24:25.089Z,12.10
2022-11-06T05:26:57.896Z,12.80
2022-11-06T05:29:26.226Z,12.25
2022-11-06T05:31:52.828Z,12.48
2022-11-06T05:34:19.495Z,12.75
2022-11-06T05:36:46.115Z,12.38
2022-11-06T05:39:12.849Z,12.20
2022-11-06T05:41:39.436Z,11.20
2022-11-06T05:44:06.062Z,11.55
2022-11-06T05:46:48.254Z,11.40
2022-11-06T05:49:15.618Z,12.27
2022-11-06T05:51:42.481Z,13.15
2022-11-06T05:54:09.146Z,13.23
2022-11-06T05:56:35.788Z,12.93
2022-11-06T05:59:02.359Z,13.05
2022-11-06T06:01:29.016Z,14.25
2022-11-06T06:03:55.720Z,14.25
2022-11-06T06:06:22.367Z,13.35
2022-11-06T06:08:48.955Z,13.00
2022-11-06T06:11:15.566Z,12.88
2022-11-06T06:13:42.205Z,12.80
2022-11-06T06:16:08.811Z,13.15
2022-11-06T06:18:35.441Z,12.73
2022-11-06T06:21:02.139Z,13.27
2022-11-06T06:23:28.755Z,13.48
2022-11-06T06:25:56.775Z,18.70
2022-11-06T06:28:23.381Z,13.20
2022-11-06T06:30:49.997Z,14.02
2022-11-06T06:33:16.568Z,29.67
2022-11-06T06:35:43.212Z,14.88
2022-11-06T06:38:09.942Z,13.75
2022-11-06T06:40:36.689Z,12.95
2022-11-06T06:43:03.329Z,13.25
2022-11-06T06:45:29.945Z,13.60
2022-11-06T06:48:01.624Z,14.13
2022-11-06T06:50:28.204Z,14.50
2022-11-06T06:52:58.790Z,13.52
2022-11-06T06:55:25.698Z,12.93
2022-11-06T06:57:56.259Z,13.15
2022-11-06T07:00:22.860Z,13.27
2022-11-06T07:02:49.461Z,12.65
2022-11-06T07:05:16.078Z,13.52
2022-11-06T07:07:42.668Z,13.35
2022-11-06T07:10:09.319Z,12.00
2022-11-06T07:12:35.928Z,12.27
2022-11-06T07:15:02.580Z,12.43
2022-11-06T07:17:29.189Z,13.07
2022-11-06T07:19:55.768Z,11.15
2022-11-06T07:22:29.687Z,11.52
2022-11-06T07:25:02.053Z,11.85
2022-11-06T07:27:29.274Z,28.23
2022-11-06T07:29:55.975Z,18.65
2022-11-06T07:32:22.607Z,15.15
2022-11-06T07:34:49.212Z,13.68
2022-11-06T07:37:15.768Z,13.02
2022-11-06T07:39:42.386Z,12.90
2022-11-06T07:42:09.005Z,13.30
2022-11-06T07:44:36.952Z,13.18
2022-11-06T07:47:03.571Z,11.80
2022-11-06T07:49:30.169Z,12.07
2022-11-06T07:51:57.013Z,12.18
2022-11-06T07:54:23.702Z,12.15
2022-11-06T07:56:50.365Z,11.30
2022-11-06T07:59:17.089Z,10.02
2022-11-06T08:01:43.812Z,8.70
2022-11-06T08:04:11.056Z,10.80
2022-11-06T08:06:37.640Z,10.85
2022-11-06T08:09:07.984Z,11.23
2022-11-06T08:11:34.669Z,10.55
2022-11-06T08:14:01.560Z,10.77
2022-11-06T08:16:28.233Z,5.97
2022-11-06T08:18:55.180Z,5.28
2022-11-06T08:21:21.795Z,4.20
2022-11-06T08:23:48.402Z,4.80
2022-11-06T08:26:15.093Z,4.80
2022-11-06T08:28:41.779Z,4.60
2022-11-06T08:31:09.278Z,4.53
2022-11-06T08:33:36.369Z,5.05
2022-11-06T08:36:06.834Z,4.32
2022-11-06T08:38:34.048Z,4.60
2022-11-06T08:41:07.453Z,4.38
2022-11-06T08:43:34.439Z,5.13
2022-11-06T08:46:01.656Z,5.28
2022-11-06T08:48:28.377Z,5.68
2022-11-06T08:50:55.009Z,4.95
2022-11-06T08:53:21.704Z,5.15
2022-11-06T08:55:48.412Z,5.10
2022-11-06T08:58:15.142Z,5.43
2022-11-06T09:00:41.974Z,4.95
2022-11-06T09:03:13.610Z,4.68
2022-11-06T09:05:41.758Z,3.80
2022-11-06T09:08:09.078Z,3.22
2022-11-06T09:10:36.771Z,3.65
2022-11-06T09:13:03.800Z,4.18
2022-11-06T09:15:30.728Z,4.55
2022-11-06T09:17:58.692Z,4.68
2022-11-06T09:20:26.032Z,4.70
2022-11-06T09:22:52.971Z,5.07
2022-11-06T09:25:19.952Z,5.15
2022-11-06T09:27:47.693Z,4.80
2022-11-06T09:30:21.597Z,8.20
2022-11-06T09:32:49.463Z,7.63
2022-11-06T09:35:16.405Z,7.53
2022-11-06T09:37:43.025Z,6.20
2022-11-06T09:40:20.552Z,5.95
2022-11-06T09:43:06.638Z,6.75
2022-11-06T09:45:34.324Z,6.53
2022-11-06T09:48:04.086Z,7.07
2022-11-06T09:50:33.740Z,8.77
2022-11-06T09:53:07.515Z,8.82
2022-11-06T09:55:35.828Z,8.90
2022-11-06T09:58:14.962Z,7.72
2022-11-06T10:00:42.238Z,7.57
2022-11-06T10:03:16.213Z,6.38
2022-11-06T10:05:44.912Z,7.30
2022-11-06T10:08:22.193Z,7.07
2022-11-06T10:11:06.393Z,5.90
2022-11-06T10:13:38.996Z,6.40
2022-11-06T10:16:05.739Z,6.15
2022-11-06T10:18:48.424Z,5.45
2022-11-06T10:21:14.959Z,5.80
2022-11-06T10:23:44.568Z,6.32
2022-11-06T10:26:17.111Z,6.03
2022-11-06T10:28:56.091Z,4.70
2022-11-06T10:31:30.494Z,5.28
2022-11-06T10:34:00.116Z,5.32
2022-11-06T10:36:30.621Z,4.95
2022-11-06T10:38:58.643Z,5.40
2022-11-06T10:41:27.243Z,4.88
2022-11-06T10:43:57.835Z,5.85
2022-11-06T10:46:30.215Z,5.25
2022-11-06T10:49:01.020Z,5.35
2022-11-06T10:51:32.353Z,6.00
2022-11-06T10:54:17.751Z,5.80
2022-11-06T10:56:47.732Z,5.05
2022-11-06T10:59:15.222Z,5.28
2022-11-06T11:01:41.964Z,5.38
2022-11-06T11:04:08.903Z,4.80
2022-11-06T11:06:38.658Z,5.40
2022-11-06T11:09:25.200Z,4.57
2022-11-06T11:11:51.868Z,5.70
2022-11-06T11:14:28.116Z,4.90
2022-11-06T11:16:55.416Z,5.22
2022-11-06T11:19:36.472Z,5.15
2022-11-06T11:22:04.492Z,4.90
2022-11-06T11:24:31.176Z,5.22
2022-11-06T11:27:02.086Z,4.53
2022-11-06T11:29:31.560Z,4.72
2022-11-06T11:32:05.961Z,4.35
2022-11-06T11:34:34.457Z,4.80
2022-11-06T11:37:05.541Z,4.90
2022-11-06T11:39:36.079Z,5.20
2022-11-06T11:42:18.145Z,4.75
2022-11-06T11:44:44.805Z,4.28
2022-11-06T11:47:22.422Z,5.32
2022-11-06T11:49:49.347Z,4.88
2022-11-06T11:52:21.077Z,4.63
2022-11-06T11:54:50.795Z,4.40
2022-11-06T11:57:19.369Z,5.53
2022-11-06T11:59:55.733Z,4.55
2022-11-06T12:02:29.475Z,5.13
2022-11-06T12:04:58.572Z,5.30
2022-11-06T12:07:29.203Z,5.80
2022-11-06T12:09:56.133Z,4.95
2022-11-06T12:12:36.508Z,5.38
2022-11-06T12:15:23.613Z,5.38
2022-11-06T12:17:55.257Z,6.45
2022-11-06T12:20:25.689Z,6.38
2022-11-06T12:22:53.413Z,6.38
2022-11-06T12:25:23.889Z,7.32
2022-11-06T12:27:55.395Z,6.45
2022-11-06T12:30:22.081Z,6.57
2022-11-06T12:32:54.146Z,6.65
2022-11-06T12:35:25.014Z,6.88
2022-11-06T12:38:00.470Z,6.32
2022-11-06T12:40:31.892Z,6.07
2022-11-06T12:42:58.457Z,6.70
2022-11-06T12:45:30.170Z,6.20
2022-11-06T12:48:06.368Z,5.70
2022-11-06T12:50:54.686Z,6.60
2022-11-06T12:53:30.183Z,6.25
2022-11-06T12:56:04.772Z,6.45
2022-11-06T12:58:37.540Z,6.82
2022-11-06T13:01:10.574Z,6.95
2022-11-06T13:03:42.997Z,6.47
2022-11-06T13:06:21.858Z,6.45
2022-11-06T13:09:04.894Z,5.80
2022-11-06T13:11:36.103Z,5.88
2022-11-06T13:14:22.035Z,6.28
2022-11-06T13:17:00.977Z,5.90
2022-11-06T13:19:33.662Z,5.60
2022-11-06T13:22:05.995Z,5.97
2022-11-06T13:24:46.148Z,5.95
2022-11-06T13:27:18.960Z,5.97
2022-11-06T13:29:45.904Z,5.90
2022-11-06T13:32:15.094Z,5.88
2022-11-06T13:34:43.540Z,5.85
2022-11-06T13:37:15.254Z,5.80
2022-11-06T13:39:50.155Z,6.55
2022-11-06T13:42:52.488Z,6.10
2022-11-06T13:45:19.622Z,6.20
2022-11-06T13:47:49.124Z,6.07
2022-11-06T13:50:27.873Z,6.22
2022-11-06T13:52:57.800Z,6.30
2022-11-06T13:55:24.460Z,6.28
2022-11-06T13:57:53.949Z,5.72
2022-11-06T14:00:32.509Z,5.60
2022-11-06T14:03:01.899Z,6.15
2022-11-06T14:05:42.392Z,6.05
2022-11-06T14:08:14.941Z,5.80
2022-11-06T14:10:47.836Z,5.60
2022-11-06T14:13:15.752Z,6.40
2022-11-06T14:15:42.701Z,5.72
2022-11-06T14:18:14.368Z,5.65
2022-11-06T14:20:41.237Z,6.22
2022-11-06T14:23:26.656Z,6.00
2022-11-06T14:26:12.948Z,6.05
2022-11-06T14:28:40.861Z,6.30
2022-11-06T14:31:13.417Z,6.07
2022-11-06T14:33:40.817Z,5.22
2022-11-06T14:36:27.603Z,6.82
2022-11-06T14:38:54.265Z,6.25
2022-11-06T14:41:36.281Z,6.32
2022-11-06T14:44:15.769Z,6.07
2022-11-06T14:46:49.548Z,5.93
2022-11-06T14:49:22.359Z,6.50
2022-11-06T14:51:59.427Z,6.10
2022-11-06T14:54:26.159Z,6.25
2022-11-06T14:56:54.123Z,6.95
2022-11-06T14:59:22.508Z,6.70
2022-11-06T15:02:06.346Z,6.30
2022-11-06T15:04:34.624Z,6.97
2022-11-06T15:07:08.733Z,6.28
2022-11-06T15:09:38.228Z,6.40
2022-11-06T15:12:06.417Z,5.97
2022-11-06T15:14:33.007Z,8.13
2022-11-06T15:17:02.660Z,7.03
2022-11-06T15:19:29.211Z,6.70
2022-11-06T15:22:14.564Z,6.65
2022-11-06T15:24:49.360Z,5.82
2022-11-06T15:27:19.475Z,6.00
2022-11-06T15:29:49.184Z,6.47
2022-11-06T15:32:18.358Z,21.33
2022-11-06T15:34:46.537Z,10.50
2022-11-06T15:37:17.155Z,6.95
2022-11-06T15:39:50.024Z,7.25
2022-11-06T15:42:18.202Z,6.32
2022-11-06T15:44:46.059Z,6.43
2022-11-06T15:47:23.377Z,5.50
2022-11-06T15:50:10.280Z,5.75
2022-11-06T15:52:36.890Z,5.75
2022-11-06T15:55:06.233Z,5.57
2022-11-06T15:57:33.258Z,5.88
2022-11-06T16:00:26.551Z,5.60
2022-11-06T16:02:58.836Z,5.10
2022-11-06T16:05:26.950Z,5.68
2022-11-06T16:07:53.582Z,6.07
2022-11-06T16:10:21.712Z,6.95
2022-11-06T16:12:49.235Z,5.88
2022-11-06T16:15:34.698Z,6.43
2022-11-06T16:18:11.797Z,5.60
2022-11-06T16:20:38.819Z,4.93
2022-11-06T16:23:05.887Z,5.90
2022-11-06T16:25:32.563Z,7.15
2022-11-06T16:27:59.190Z,5.40
2022-11-06T16:30:26.033Z,5.65
2022-11-06T16:32:52.931Z,5.25
2022-11-06T16:35:36.276Z,5.72
2022-11-06T16:38:39.154Z,5.57
2022-11-06T16:41:01.717Z,4.93
2022-11-06T16:43:28.326Z,5.10
2022-11-06T16:46:05.479Z,4.57
2022-11-06T16:48:35.510Z,5.85
2022-11-06T16:51:03.891Z,5.63
2022-11-06T16:53:31.896Z,5.07
2022-11-06T16:56:00.418Z,5.32
2022-11-06T16:58:27.845Z,5.60
2022-11-06T17:00:59.037Z,8.38
2022-11-06T17:03:27.659Z,7.72
2022-11-06T17:05:58.071Z,6.60
2022-11-06T17:08:31.497Z,5.85
2022-11-06T17:10:58.520Z,5.50
2022-11-06T17:13:31.071Z,5.25
2022-11-06T17:15:59.363Z,5.57
2022-11-06T17:18:27.472Z,5.18
2022-11-06T17:20:58.214Z,4.80
2022-11-06T17:23:25.349Z,3.83
2022-11-06T17:25:53.975Z,4.65
2022-11-06T17:28:20.544Z,4.72
2022-11-06T17:30:47.530Z,4.90
2022-11-06T17:33:16.668Z,4.05
2022-11-06T17:35:43.789Z,4.28
2022-11-06T17:38:13.024Z,6.50
2022-11-06T17:40:39.967Z,5.60
2022-11-06T17:43:06.621Z,4.82
2022-11-06T17:45:33.287Z,4.40
2022-11-06T17:47:59.932Z,4.55
2022-11-06T17:50:26.801Z,4.20
2022-11-06T17:52:53.427Z,4.30
2022-11-06T17:55:20.020Z,4.32
2022-11-06T17:57:46.612Z,4.20
2022-11-06T18:00:13.581Z,4.55
2022-11-06T18:03:00.255Z,4.38
2022-11-06T18:05:27.364Z,4.72
2022-11-06T18:07:53.994Z,4.70
2022-11-06T18:10:20.581Z,4.68
2022-11-06T18:12:51.256Z,4.57
2022-11-06T18:15:18.016Z,4.22
2022-11-06T18:17:44.605Z,4.40
2022-11-06T18:20:11.435Z,4.35
2022-11-06T18:22:38.167Z,5.00
2022-11-06T18:25:04.961Z,4.65
2022-11-06T18:27:31.539Z,4.93
2022-11-06T18:29:58.165Z,5.32
2022-11-06T18:32:24.786Z,4.60
2022-11-06T18:34:51.379Z,5.57
2022-11-06T18:37:18.163Z,5.45
2022-11-06T18:39:44.863Z,5.07
2022-11-06T18:42:11.402Z,4.88
2022-11-06T18:44:41.282Z,4.70
2022-11-06T18:47:07.991Z,5.13
2022-11-06T18:49:34.737Z,4.82
2022-11-06T18:52:01.403Z,4.72
2022-11-06T18:54:29.354Z,4.85
2022-11-06T18:56:55.974Z,4.82
2022-11-06T18:59:24.269Z,4.95
2022-11-06T19:01:51.043Z,5.13
2022-11-06T19:04:18.596Z,5.05
2022-11-06T19:06:45.302Z,5.05
2022-11-06T19:09:11.927Z,4.68
2022-11-06T19:11:38.645Z,5.18
2022-11-06T19:14:05.363Z,5.75
2022-11-06T19:16:31.995Z,6.18
2022-11-06T19:21:28.382Z,5.93
2022-11-06T19:24:00.264Z,6.22
2022-11-06T19:26:31.490Z,5.70
2022-11-06T19:29:00.042Z,5.95
2022-11-06T19:31:30.391Z,5.90
2022-11-06T19:33:58.160Z,5.82
2022-11-06T19:36:25.332Z,5.65
2022-11-06T19:38:52.476Z,5.72
2022-11-06T19:41:19.063Z,6.00
2022-11-06T19:43:45.746Z,6.05
2022-11-06T19:46:12.442Z,6.63
2022-11-06T19:48:39.128Z,6.97
2022-11-06T19:51:08.932Z,7.85
2022-11-06T19:53:35.503Z,8.25
2022-11-06T19:56:09.532Z,8.40
2022-11-06T19:58:36.659Z,6.68
2022-11-06T20:01:10.521Z,5.63
2022-11-06T20:03:37.392Z,5.50
2022-11-06T20:06:07.833Z,5.10
2022-11-06T20:08:35.829Z,6.00
2022-11-06T20:11:06.230Z,6.20
2022-11-06T20:13:36.316Z,6.10
2022-11-06T20:16:04.158Z,6.22
2022-11-06T20:18:31.164Z,6.65
2022-11-06T20:21:05.239Z,6.13
2022-11-06T20:23:32.256Z,6.30
2022-11-06T20:25:59.145Z,6.75
2022-11-06T20:28:25.811Z,7.07
2022-11-06T20:30:52.431Z,5.78
2022-11-06T20:33:19.085Z,5.65
2022-11-06T20:35:45.756Z,5.93
2022-11-06T20:38:14.415Z,5.95
2022-11-06T20:40:42.191Z,5.95
2022-11-06T20:43:08.935Z,7.75
2022-11-06T20:45:37.337Z,6.80
2022-11-06T20:48:04.981Z,6.75
2022-11-06T20:50:31.841Z,6.07
2022-11-06T20:53:00.339Z,6.65
2022-11-06T20:55:26.965Z,6.20
2022-11-06T20:57:53.664Z,5.63
2022-11-06T21:00:20.569Z,5.57
2022-11-06T21:02:47.352Z,5.60
2022-11-06T21:05:15.017Z,6.53
2022-11-06T21:07:41.792Z,6.38
2022-11-06T21:10:10.031Z,5.15
2022-11-06T21:12:36.707Z,4.97
2022-11-06T21:15:03.439Z,4.93
2022-11-06T21:17:30.132Z,5.20
2022-11-06T21:19:56.791Z,5.15
2022-11-06T21:22:23.393Z,5.18
2022-11-06T21:24:50.029Z,4.90
2022-11-06T21:27:16.775Z,4.95
2022-11-06T21:29:43.395Z,5.40
2022-11-06T21:32:10.028Z,5.30
2022-11-06T21:34:36.637Z,6.18
2022-11-06T21:37:03.837Z,5.85
2022-11-06T21:39:34.833Z,5.47
2022-11-06T21:42:02.800Z,4.90
2022-11-06T21:44:29.381Z,5.05
2022-11-06T21:46:55.980Z,5.10
2022-11-06T21:49:22.665Z,6.15
2022-11-06T21:51:49.292Z,5.75
2022-11-06T21:54:34.401Z,6.82
2022-11-06T21:57:01.142Z,6.15
2022-11-06T21:59:28.488Z,6.07
2022-11-06T22:01:55.603Z,6.15
2022-11-06T22:04:22.565Z,5.95
2022-11-06T22:06:49.278Z,6.93
2022-11-06T22:09:19.488Z,6.88
2022-11-06T22:11:47.368Z,6.55
2022-11-06T22:14:15.129Z,6.47
2022-11-06T22:16:43.071Z,6.57
2022-11-06T22:19:10.227Z,7.13
2022-11-06T22:21:38.385Z,6.43
2022-11-06T22:24:05.562Z,6.30
2022-11-06T22:26:33.087Z,7.03
2022-11-06T22:29:00.981Z,6.43
2022-11-06T22:31:28.165Z,6.25
2022-11-06T22:33:54.789Z,6.78
2022-11-06T22:36:22.094Z,5.57
2022-11-06T22:38:48.933Z,6.22
2022-11-06T22:41:16.682Z,6.78
2022-11-06T22:43:44.551Z,6.18
2022-11-06T22:46:16.324Z,6.68
2022-11-06T22:48:43.310Z,6.50
2022-11-06T22:51:11.060Z,6.38
2022-11-06T22:53:37.974Z,6.22
2022-11-06T22:56:04.932Z,6.18
2022-11-06T22:58:31.981Z,5.55
2022-11-06T23:00:58.930Z,5.57
2022-11-06T23:03:27.099Z,4.85
2022-11-06T23:05:58.003Z,5.78
2022-11-06T23:08:25.494Z,5.25
2022-11-06T23:10:52.161Z,5.20
2022-11-06T23:13:18.747Z,5.30
2022-11-06T23:15:45.269Z,5.68
2022-11-06T23:18:11.908Z,5.13
2022-11-06T23:20:38.556Z,5.05
2022-11-06T23:23:05.668Z,4.95
2022-11-06T23:25:32.235Z,4.55
2022-11-06T23:27:59.557Z,5.32
2022-11-06T23:30:26.802Z,5.25
2022-11-06T23:32:53.406Z,5.38
2022-11-06T23:35:22.730Z,6.07
2022-11-06T23:37:49.667Z,6.35
2022-11-06T23:40:16.370Z,6.28
2022-11-06T23:42:44.071Z,5.85
2022-11-06T23:45:29.804Z,6.55
2022-11-06T23:47:56.461Z,5.55
2022-11-06T23:50:23.052Z,6.20
2022-11-06T23:52:49.704Z,5.60
2022-11-06T23:55:16.371Z,5.57
2022-11-06T23:57:42.974Z,5.45
